createdAt,value
2022-08-20T00:02:15.264Z,9.63
2022-08-20T00:04:45.380Z,9.93
2022-08-20T00:07:14.906Z,10.67
2022-08-20T00:09:43.397Z,9.57
2022-08-20T00:12:12.738Z,10.50
2022-08-20T00:14:41.323Z,10.10
2022-08-20T00:17:09.532Z,10.23
2022-08-20T00:19:37.898Z,10.17
2022-08-20T00:22:07.666Z,11.07
2022-08-20T00:24:35.946Z,9.80
2022-08-20T00:27:04.137Z,11.17
2022-08-20T00:29:32.651Z,9.50
2022-08-20T00:32:01.000Z,10.73
2022-08-20T00:34:29.369Z,10.83
2022-08-20T00:36:57.539Z,9.83
2022-08-20T00:39:27.094Z,10.70
2022-08-20T00:41:55.215Z,11.40
2022-08-20T00:44:24.021Z,10.43
2022-08-20T00:46:54.243Z,10.00
2022-08-20T00:49:25.890Z,10.43
2022-08-20T00:51:58.864Z,9.77
2022-08-20T00:54:32.393Z,11.10
2022-08-20T00:57:03.902Z,10.20
2022-08-20T00:59:34.609Z,10.73
2022-08-20T01:02:04.415Z,10.07
2022-08-20T01:04:35.311Z,10.93
2022-08-20T01:07:06.223Z,9.50
2022-08-20T01:09:57.506Z,9.63
2022-08-20T01:12:26.096Z,10.20
2022-08-20T01:14:54.911Z,10.13
2022-08-20T01:17:26.751Z,10.53
2022-08-20T01:20:00.507Z,10.13
2022-08-20T01:22:53.409Z,12.27
2022-08-20T01:25:30.975Z,11.03
2022-08-20T01:28:00.946Z,11.40
2022-08-20T01:30:33.339Z,10.37
2022-08-20T01:33:02.389Z,9.17
2022-08-20T01:35:30.742Z,11.47
2022-08-20T01:37:58.860Z,10.40
2022-08-20T01:40:45.746Z,9.80
2022-08-20T01:43:15.717Z,10.53
2022-08-20T01:45:45.727Z,10.40
2022-08-20T01:48:17.023Z,10.23
2022-08-20T01:50:53.791Z,10.60
2022-08-20T01:53:29.691Z,9.47
2022-08-20T01:55:57.913Z,10.77
2022-08-20T01:58:29.650Z,10.87
2022-08-20T02:00:58.112Z,10.77
2022-08-20T02:03:26.469Z,9.93
2022-08-20T02:05:54.704Z,10.30
2022-08-20T02:08:23.189Z,10.57
2022-08-20T02:10:51.313Z,10.50
2022-08-20T02:13:19.608Z,11.00
2022-08-20T02:15:49.095Z,11.50
2022-08-20T02:18:17.302Z,10.60
2022-08-20T02:20:47.071Z,11.13
2022-08-20T02:23:16.315Z,11.43
2022-08-20T02:25:48.405Z,11.30
2022-08-20T02:28:19.804Z,10.53
2022-08-20T02:30:52.898Z,10.53
2022-08-20T02:33:24.261Z,10.93
2022-08-20T02:35:56.951Z,11.37
2022-08-20T02:38:25.994Z,10.40
2022-08-20T02:40:54.292Z,10.73
2022-08-20T02:43:22.380Z,12.20
2022-08-20T02:45:51.993Z,10.53
2022-08-20T02:48:23.181Z,11.67
2022-08-20T02:50:54.757Z,11.10
2022-08-20T02:53:23.975Z,12.57
2022-08-20T02:55:52.369Z,11.20
2022-08-20T02:58:21.745Z,11.43
2022-08-20T03:00:51.737Z,10.73
2022-08-20T03:03:22.722Z,11.50
2022-08-20T03:05:53.394Z,11.47
2022-08-20T03:08:21.740Z,11.77
2022-08-20T03:10:50.962Z,11.23
2022-08-20T03:13:20.319Z,10.80
2022-08-20T03:15:53.237Z,11.10
2022-08-20T03:18:27.924Z,11.13
2022-08-20T03:20:56.057Z,11.27
2022-08-20T03:23:25.674Z,11.67
2022-08-20T03:25:54.111Z,11.40
2022-08-20T03:28:22.248Z,12.00
2022-08-20T03:30:51.466Z,11.77
2022-08-20T03:33:20.331Z,13.73
2022-08-20T03:35:50.524Z,12.73
2022-08-20T03:38:21.547Z,11.80
2022-08-20T03:41:02.074Z,12.10
2022-08-20T03:43:30.897Z,11.53
2022-08-20T03:45:59.164Z,12.50
2022-08-20T03:48:27.443Z,11.40
2022-08-20T03:50:57.620Z,11.70
2022-08-20T03:53:25.691Z,12.70
2022-08-20T03:55:58.233Z,12.87
2022-08-20T03:58:35.029Z,11.80
2022-08-20T04:01:07.300Z,11.90
2022-08-20T04:03:37.203Z,12.70
2022-08-20T04:06:07.179Z,12.30
2022-08-20T04:08:35.507Z,12.00
2022-08-20T04:11:03.651Z,11.83
2022-08-20T04:13:32.310Z,13.20
2022-08-20T04:16:03.652Z,13.63
2022-08-20T04:18:32.523Z,13.70
2022-08-20T04:21:00.712Z,12.87
2022-08-20T04:23:31.275Z,13.23
2022-08-20T04:26:00.880Z,12.20
2022-08-20T04:28:30.133Z,12.20
2022-08-20T04:31:00.530Z,13.70
2022-08-20T04:33:33.919Z,12.93
2022-08-20T04:36:06.069Z,13.80
2022-08-20T04:38:49.657Z,13.93
2022-08-20T04:41:22.621Z,12.30
2022-08-20T04:43:53.132Z,13.90
2022-08-20T04:46:23.618Z,12.53
2022-08-20T04:48:51.820Z,13.20
2022-08-20T04:51:23.085Z,12.80
2022-08-20T04:53:54.740Z,12.10
2022-08-20T04:56:24.397Z,11.30
2022-08-20T04:58:53.883Z,13.17
2022-08-20T05:01:23.100Z,13.27
2022-08-20T05:03:53.626Z,13.43
2022-08-20T05:06:24.691Z,12.63
2022-08-20T05:08:54.491Z,12.93
2022-08-20T05:11:35.553Z,13.00
2022-08-20T05:14:08.584Z,13.50
2022-08-20T05:16:41.153Z,12.60
2022-08-20T05:19:12.143Z,13.80
2022-08-20T05:21:40.799Z,13.77
2022-08-20T05:24:11.416Z,13.43
2022-08-20T05:26:40.040Z,13.80
2022-08-20T05:29:08.272Z,14.00
2022-08-20T05:31:38.463Z,13.47
2022-08-20T05:34:10.269Z,14.03
2022-08-20T05:36:40.161Z,14.30
2022-08-20T05:39:10.362Z,13.33
2022-08-20T05:41:39.495Z,13.07
2022-08-20T05:44:10.741Z,13.00
2022-08-20T05:46:40.497Z,13.17
2022-08-20T05:49:08.963Z,11.90
2022-08-20T05:51:37.897Z,13.70
2022-08-20T05:54:07.160Z,13.30
2022-08-20T05:56:37.850Z,12.70
2022-08-20T05:59:07.933Z,12.60
2022-08-20T06:01:38.931Z,13.03
2022-08-20T06:04:26.717Z,13.13
2022-08-20T06:06:56.839Z,12.63
2022-08-20T06:09:31.127Z,14.77
2022-08-20T06:12:02.883Z,13.63
2022-08-20T06:14:32.219Z,13.63
2022-08-20T06:17:08.769Z,13.23
2022-08-20T06:19:38.537Z,14.17
2022-08-20T06:22:18.733Z,13.23
2022-08-20T06:24:50.616Z,14.20
2022-08-20T06:27:20.907Z,14.20
2022-08-20T06:29:49.591Z,14.27
2022-08-20T06:32:18.260Z,14.73
2022-08-20T06:34:50.019Z,14.20
2022-08-20T06:37:21.177Z,14.10
2022-08-20T06:39:49.494Z,14.13
2022-08-20T06:42:20.894Z,14.03
2022-08-20T06:44:50.875Z,13.23
2022-08-20T06:47:20.332Z,14.90
2022-08-20T06:49:49.347Z,13.13
2022-08-20T06:52:18.208Z,12.80
2022-08-20T06:54:46.864Z,14.30
2022-08-20T06:57:15.715Z,12.83
2022-08-20T06:59:45.177Z,13.50
2022-08-20T07:02:29.153Z,13.73
2022-08-20T07:04:59.612Z,13.27
2022-08-20T07:07:27.709Z,15.23
2022-08-20T07:10:00.825Z,13.30
2022-08-20T07:12:28.970Z,14.07
2022-08-20T07:14:58.454Z,13.27
2022-08-20T07:17:26.766Z,14.87
2022-08-20T07:19:54.899Z,14.83
2022-08-20T07:22:23.194Z,13.67
2022-08-20T07:24:51.520Z,14.30
2022-08-20T07:27:22.775Z,14.60
2022-08-20T07:30:21.616Z,14.07
2022-08-20T07:32:51.943Z,13.60
2022-08-20T07:35:20.605Z,13.80
2022-08-20T07:37:54.564Z,12.70
2022-08-20T07:40:27.428Z,14.03
2022-08-20T07:42:56.375Z,13.10
2022-08-20T07:45:25.705Z,13.80
2022-08-20T07:47:55.934Z,13.53
2022-08-20T07:50:27.436Z,13.10
2022-08-20T07:52:55.674Z,14.40
2022-08-20T07:55:24.999Z,14.57
2022-08-20T07:57:53.148Z,13.50
2022-08-20T08:00:24.120Z,13.57
2022-08-20T08:02:52.434Z,14.07
2022-08-20T08:05:21.930Z,14.37
2022-08-20T08:07:50.056Z,13.23
2022-08-20T08:10:23.117Z,12.93
2022-08-20T08:12:54.516Z,13.40
2022-08-20T08:15:27.521Z,14.00
2022-08-20T08:18:00.577Z,13.47
2022-08-20T08:20:31.292Z,14.80
2022-08-20T08:22:59.799Z,13.30
2022-08-20T08:25:27.895Z,13.70
2022-08-20T08:27:56.087Z,14.10
2022-08-20T08:30:24.179Z,12.77
2022-08-20T08:33:09.409Z,12.70
2022-08-20T08:35:40.103Z,13.10
2022-08-20T08:38:09.590Z,13.20
2022-08-20T08:40:42.934Z,14.20
2022-08-20T08:43:13.840Z,12.70
2022-08-20T08:45:48.259Z,13.17
2022-08-20T08:48:19.506Z,14.00
2022-08-20T08:50:54.649Z,13.70
2022-08-20T08:53:27.321Z,13.10
2022-08-20T08:55:56.006Z,12.60
2022-08-20T08:58:24.183Z,13.50
2022-08-20T09:00:56.107Z,12.93
2022-08-20T09:03:29.403Z,12.90
2022-08-20T09:06:01.374Z,13.50
2022-08-20T09:08:37.042Z,13.57
2022-08-20T09:11:08.302Z,13.30
2022-08-20T09:13:36.879Z,11.77
2022-08-20T09:16:05.908Z,12.83
2022-08-20T09:18:34.017Z,13.00
2022-08-20T09:21:03.523Z,12.47
2022-08-20T09:23:31.724Z,12.57
2022-08-20T09:25:59.800Z,13.43
2022-08-20T09:28:32.450Z,13.40
2022-08-20T09:31:04.539Z,13.13
2022-08-20T09:33:34.619Z,13.20
2022-08-20T09:36:04.473Z,12.93
2022-08-20T09:38:52.587Z,13.43
2022-08-20T09:41:20.708Z,12.60
2022-08-20T09:43:48.881Z,13.13
2022-08-20T09:46:16.963Z,12.30
2022-08-20T09:48:45.212Z,12.53
2022-08-20T09:51:14.825Z,12.23
2022-08-20T09:53:44.053Z,12.73
2022-08-20T09:56:12.274Z,12.37
2022-08-20T09:58:49.622Z,11.93
2022-08-20T10:01:20.444Z,12.67
2022-08-20T10:03:50.120Z,11.60
2022-08-20T10:06:21.007Z,12.60
2022-08-20T10:08:50.345Z,12.63
2022-08-20T10:11:19.311Z,11.77
2022-08-20T10:13:47.432Z,12.60
2022-08-20T10:16:15.520Z,13.10
2022-08-20T10:18:43.624Z,12.40
2022-08-20T10:21:11.804Z,12.13
2022-08-20T10:23:41.324Z,13.13
2022-08-20T10:26:09.696Z,12.67
2022-08-20T10:28:38.000Z,12.07
2022-08-20T10:31:07.277Z,11.67
2022-08-20T10:33:36.636Z,11.70
2022-08-20T10:36:08.091Z,12.23
2022-08-20T10:38:36.275Z,11.23
2022-08-20T10:41:06.712Z,12.50
2022-08-20T10:43:35.275Z,11.70
2022-08-20T10:46:04.426Z,12.23
2022-08-20T10:48:32.806Z,12.63
2022-08-20T10:51:00.921Z,11.80
2022-08-20T10:53:29.045Z,12.13
2022-08-20T10:55:57.916Z,12.20
2022-08-20T10:58:37.629Z,12.83
2022-08-20T11:01:08.113Z,12.73
2022-08-20T11:03:36.869Z,11.63
2022-08-20T11:06:05.147Z,12.10
2022-08-20T11:08:35.865Z,12.33
2022-08-20T11:11:05.011Z,11.93
2022-08-20T11:13:35.349Z,12.90
2022-08-20T11:16:05.011Z,12.70
2022-08-20T11:18:33.428Z,11.90
2022-08-20T11:21:02.135Z,12.07
2022-08-20T11:23:30.514Z,12.00
2022-08-20T11:25:59.435Z,11.90
2022-08-20T11:28:31.259Z,11.47
2022-08-20T11:31:02.444Z,12.17
2022-08-20T11:33:30.585Z,11.17
2022-08-20T11:35:58.960Z,11.07
2022-08-20T11:38:27.138Z,11.67
2022-08-20T11:40:55.411Z,11.00
2022-08-20T11:43:23.459Z,12.67
2022-08-20T11:45:57.230Z,11.97
2022-08-20T11:48:26.729Z,12.50
2022-08-20T11:50:55.040Z,12.80
2022-08-20T11:53:23.129Z,13.20
2022-08-20T11:55:51.442Z,12.90
2022-08-20T11:58:19.523Z,13.10
2022-08-20T12:00:47.663Z,12.20
2022-08-20T12:03:16.540Z,11.73
2022-08-20T12:05:47.610Z,12.97
2022-08-20T12:08:25.102Z,13.40
2022-08-20T12:10:56.361Z,12.70
2022-08-20T12:13:30.689Z,12.60
2022-08-20T12:16:12.572Z,13.57
2022-08-20T12:18:40.873Z,14.40
2022-08-20T12:21:10.401Z,12.80
2022-08-20T12:23:38.564Z,12.13
2022-08-20T12:26:06.943Z,12.67
2022-08-20T12:28:35.159Z,12.67
2022-08-20T12:31:03.352Z,13.10
2022-08-20T12:33:31.578Z,13.40
2022-08-20T12:35:59.737Z,13.83
2022-08-20T12:38:29.170Z,14.40
2022-08-20T12:40:57.299Z,14.80
2022-08-20T12:43:25.501Z,16.40
2022-08-20T12:45:53.599Z,17.60
2022-08-20T12:48:22.046Z,17.60
2022-08-20T12:50:52.739Z,21.07
2022-08-20T12:53:20.988Z,18.67
2022-08-20T12:55:50.475Z,19.03
2022-08-20T12:58:19.295Z,21.80
2022-08-20T13:00:50.401Z,24.17
2022-08-20T13:03:20.929Z,24.33
2022-08-20T13:05:49.206Z,25.23
2022-08-20T13:08:19.255Z,26.30
2022-08-20T13:10:48.120Z,24.83
2022-08-20T13:13:20.834Z,24.77
2022-08-20T13:15:50.695Z,25.90
2022-08-20T13:18:21.510Z,31.93
2022-08-20T13:20:50.122Z,28.70
2022-08-20T13:23:18.726Z,26.17
2022-08-20T13:25:46.882Z,23.40
2022-08-20T13:28:14.966Z,22.50
2022-08-20T13:30:44.463Z,21.80
2022-08-20T13:33:12.586Z,24.57
2022-08-20T13:35:40.727Z,22.67
2022-08-20T13:38:08.963Z,23.30
2022-08-20T13:40:37.140Z,20.87
2022-08-20T13:43:07.357Z,22.07
2022-08-20T13:45:36.459Z,21.17
2022-08-20T13:48:10.112Z,23.50
2022-08-20T13:50:43.940Z,20.30
2022-08-20T13:53:16.683Z,22.10
2022-08-20T13:55:45.359Z,19.93
2022-08-20T13:58:13.514Z,19.50
2022-08-20T14:00:41.679Z,20.43
2022-08-20T14:03:11.859Z,19.97
2022-08-20T14:05:42.188Z,20.23
2022-08-20T14:08:12.679Z,23.53
2022-08-20T14:10:42.765Z,23.30
2022-08-20T14:13:15.376Z,22.60
2022-08-20T14:15:44.149Z,24.13
2022-08-20T14:18:14.461Z,24.10
2022-08-20T14:20:45.607Z,23.47
2022-08-20T14:23:14.405Z,22.63
2022-08-20T14:25:42.709Z,25.10
2022-08-20T14:28:12.479Z,22.73
2022-08-20T14:30:41.064Z,22.90
2022-08-20T14:33:09.230Z,22.90
2022-08-20T14:35:38.939Z,23.23
2022-08-20T14:38:07.772Z,20.70
2022-08-20T14:40:37.086Z,19.27
2022-08-20T14:43:05.213Z,18.23
2022-08-20T14:45:33.507Z,15.87
2022-08-20T14:48:01.704Z,15.50
2022-08-20T14:50:31.915Z,18.30
2022-08-20T14:53:02.664Z,18.90
2022-08-20T14:55:33.703Z,18.10
2022-08-20T14:58:01.790Z,19.80
2022-08-20T15:00:33.889Z,19.23
2022-08-20T15:03:02.070Z,19.80
2022-08-20T15:05:30.509Z,21.30
2022-08-20T15:07:59.391Z,21.80
2022-08-20T15:10:32.202Z,18.27
2022-08-20T15:13:01.363Z,18.47
2022-08-20T15:15:29.642Z,15.53
2022-08-20T15:18:00.272Z,16.80
2022-08-20T15:20:31.135Z,17.43
2022-08-20T15:22:59.482Z,17.07
2022-08-20T15:25:36.651Z,18.73
2022-08-20T15:28:07.610Z,18.90
2022-08-20T15:30:36.319Z,21.37
2022-08-20T15:33:04.463Z,19.97
2022-08-20T15:35:32.648Z,18.70
2022-08-20T15:38:00.940Z,20.87
2022-08-20T15:40:33.139Z,20.50
2022-08-20T15:43:03.505Z,19.73
2022-08-20T15:45:32.622Z,19.87
2022-08-20T15:48:08.274Z,17.57
2022-08-20T15:50:53.110Z,15.63
2022-08-20T15:53:26.983Z,15.10
2022-08-20T15:56:04.362Z,15.40
2022-08-20T15:58:40.702Z,15.77
2022-08-20T16:01:25.312Z,14.97
2022-08-20T16:04:35.234Z,15.40
2022-08-20T16:07:20.846Z,17.50
2022-08-20T16:10:00.423Z,18.00
2022-08-20T16:12:33.922Z,17.63
2022-08-20T16:15:05.522Z,17.07
2022-08-20T16:17:38.156Z,17.17
2022-08-20T16:20:11.434Z,17.80
2022-08-20T16:22:44.360Z,18.00
2022-08-20T16:25:14.789Z,15.57
2022-08-20T16:27:51.599Z,18.20
2022-08-20T16:30:26.224Z,19.37
2022-08-20T16:33:03.755Z,18.30
2022-08-20T16:35:34.795Z,19.50
2022-08-20T16:38:20.929Z,18.33
2022-08-20T16:40:56.004Z,17.20
2022-08-20T16:43:33.269Z,18.90
2022-08-20T16:46:06.740Z,17.07
2022-08-20T16:48:46.906Z,18.70
2022-08-20T16:51:19.904Z,16.40
2022-08-20T16:53:48.315Z,21.50
2022-08-20T16:56:16.496Z,20.33
2022-08-20T16:58:46.925Z,20.40
2022-08-20T17:01:16.195Z,21.53
2022-08-20T17:03:51.706Z,21.13
2022-08-20T17:06:27.206Z,19.63
2022-08-20T17:08:55.751Z,18.17
2022-08-20T17:11:29.063Z,18.27
2022-08-20T17:28:26.173Z,16.70
2022-08-20T17:30:55.390Z,16.87
2022-08-20T17:33:28.942Z,14.63
2022-08-20T17:36:00.475Z,16.00
2022-08-20T17:38:34.823Z,14.07
2022-08-20T17:41:08.291Z,14.17
2022-08-20T17:43:43.371Z,14.00
2022-08-20T17:46:16.687Z,15.93
2022-08-20T17:48:48.963Z,15.60
2022-08-20T17:51:19.554Z,15.30
2022-08-20T17:53:52.730Z,16.77
2022-08-20T17:56:23.965Z,17.17
2022-08-20T17:59:03.226Z,16.43
2022-08-20T18:01:31.955Z,16.77
2022-08-20T18:04:00.182Z,15.53
2022-08-20T18:06:34.114Z,16.70
2022-08-20T18:09:05.970Z,13.57
2022-08-20T18:11:40.902Z,11.77
2022-08-20T18:14:32.908Z,10.40
2022-08-20T18:17:11.859Z,9.27
2022-08-20T18:20:11.305Z,8.87
2022-08-20T18:22:49.018Z,9.70
2022-08-20T18:25:27.436Z,9.60
2022-08-20T18:28:06.082Z,7.60
2022-08-20T18:30:35.772Z,8.50
2022-08-20T18:33:07.513Z,7.00
2022-08-20T18:35:38.659Z,7.17
2022-08-20T18:38:28.766Z,5.67
2022-08-20T18:41:07.777Z,5.80
2022-08-20T18:43:36.515Z,6.70
2022-08-20T18:46:14.983Z,6.63
2022-08-20T18:48:54.909Z,6.83
2022-08-20T18:51:31.024Z,8.20
2022-08-20T18:53:59.352Z,6.10
2022-08-20T18:56:38.490Z,6.70
2022-08-20T18:59:11.656Z,6.27
2022-08-20T19:01:43.008Z,6.50
2022-08-20T19:04:19.365Z,6.03
2022-08-20T19:06:54.402Z,5.57
2022-08-20T19:09:46.029Z,5.87
2022-08-20T19:12:42.110Z,5.67
2022-08-20T19:15:15.895Z,6.30
2022-08-20T19:18:02.947Z,5.17
2022-08-20T19:20:34.079Z,5.37
2022-08-20T19:23:08.719Z,5.20
2022-08-20T19:25:39.615Z,4.83
2022-08-20T19:28:20.610Z,5.90
2022-08-20T19:30:48.879Z,6.17
2022-08-20T19:33:27.661Z,6.30
2022-08-20T19:36:11.145Z,6.90
2022-08-20T19:38:44.831Z,6.50
2022-08-20T19:41:28.145Z,7.10
2022-08-20T19:44:00.317Z,7.13
2022-08-20T19:46:32.673Z,5.90
2022-08-20T19:49:17.995Z,5.73
2022-08-20T19:51:57.379Z,5.80
2022-08-20T19:54:28.284Z,6.30
2022-08-20T19:56:57.724Z,6.20
2022-08-20T19:59:26.813Z,6.13
2022-08-20T20:02:00.333Z,6.57
2022-08-20T20:04:37.873Z,6.70
2022-08-20T20:07:16.581Z,6.77
2022-08-20T20:09:45.176Z,5.87
2022-08-20T20:12:22.683Z,7.13
2022-08-20T20:14:52.832Z,6.50
2022-08-20T20:17:23.365Z,7.53
2022-08-20T20:19:59.024Z,5.93
2022-08-20T20:22:29.804Z,6.63
2022-08-20T20:25:08.639Z,7.77
2022-08-20T20:27:37.873Z,9.23
2022-08-20T20:30:09.896Z,7.77
2022-08-20T20:32:41.298Z,7.50
2022-08-20T20:35:10.875Z,7.80
2022-08-20T20:37:50.754Z,7.73
2022-08-20T20:40:26.329Z,7.20
2022-08-20T20:43:04.034Z,9.20
2022-08-20T20:45:36.417Z,10.00
2022-08-20T20:48:15.806Z,11.03
2022-08-20T20:50:46.998Z,10.03
2022-08-20T20:53:16.974Z,9.30
2022-08-20T20:55:55.471Z,10.87
2022-08-20T20:58:24.013Z,11.50
2022-08-20T21:00:52.184Z,11.67
2022-08-20T21:03:20.292Z,10.67
2022-08-20T21:05:49.822Z,10.20
2022-08-20T21:08:17.980Z,11.50
2022-08-20T21:10:46.654Z,9.93
2022-08-20T21:13:16.271Z,11.53
2022-08-20T21:15:44.837Z,9.10
2022-08-20T21:18:13.039Z,9.00
2022-08-20T21:20:41.161Z,10.40
2022-08-20T21:23:10.758Z,10.70
2022-08-20T21:25:38.871Z,9.40
2022-08-20T21:28:08.043Z,8.63
2022-08-20T21:30:36.254Z,8.90
2022-08-20T21:33:04.359Z,9.40
2022-08-20T21:35:32.547Z,9.57
2022-08-20T21:38:00.627Z,10.77
2022-08-20T21:40:30.161Z,10.00
2022-08-20T21:42:58.479Z,10.10
2022-08-20T21:45:28.478Z,13.03
2022-08-20T21:47:57.235Z,14.00
2022-08-20T21:50:26.331Z,14.40
2022-08-20T21:52:59.407Z,13.77
2022-08-20T21:55:36.172Z,14.00
2022-08-20T21:58:07.859Z,13.93
2022-08-20T22:00:50.076Z,15.00
2022-08-20T22:03:20.171Z,15.50
2022-08-20T22:05:49.028Z,13.97
2022-08-20T22:08:17.224Z,15.07
2022-08-20T22:10:47.452Z,14.40
2022-08-20T22:13:16.978Z,14.77
2022-08-20T22:15:45.103Z,13.77
2022-08-20T22:18:13.415Z,12.23
2022-08-20T22:20:42.257Z,13.10
2022-08-20T22:23:10.496Z,14.80
2022-08-20T22:25:38.663Z,14.57
2022-08-20T22:28:08.320Z,15.77
2022-08-20T22:30:41.710Z,13.80
2022-08-20T22:33:13.787Z,14.87
2022-08-20T22:35:46.171Z,17.60
2022-08-20T22:38:14.352Z,16.30
2022-08-20T22:40:42.714Z,16.40
2022-08-20T22:43:13.009Z,16.97
2022-08-20T22:45:43.039Z,14.77
2022-08-20T22:48:14.456Z,15.70
2022-08-20T22:50:42.696Z,14.30
2022-08-20T22:53:12.667Z,14.43
2022-08-20T22:55:41.028Z,15.77
2022-08-20T22:58:10.124Z,16.20
2022-08-20T23:00:40.223Z,16.67
2022-08-20T23:03:09.100Z,17.53
2022-08-20T23:05:38.385Z,19.90
2022-08-20T23:08:08.034Z,19.53
2022-08-20T23:10:38.453Z,18.80
2022-08-20T23:13:07.706Z,20.27
2022-08-20T23:15:45.175Z,19.67
2022-08-20T23:18:15.783Z,20.73
2022-08-20T23:20:46.772Z,21.10
2022-08-20T23:23:14.942Z,23.27
2022-08-20T23:25:43.143Z,21.10
2022-08-20T23:28:11.334Z,21.10
2022-08-20T23:30:40.814Z,22.27
2022-08-20T23:33:09.085Z,22.93
2022-08-20T23:35:39.234Z,22.37
2022-08-20T23:38:08.301Z,21.40
2022-08-20T23:40:37.614Z,23.27
2022-08-20T23:43:06.585Z,20.90
2022-08-20T23:45:35.809Z,24.10
2022-08-20T23:48:10.533Z,22.13
2022-08-20T23:50:39.298Z,24.57
2022-08-20T23:53:07.686Z,25.80
2022-08-20T23:55:36.212Z,25.50
2022-08-20T23:58:04.484Z,26.47
